Time;durP1;ratioP1;P1;durP2;ratioP2;P2;SDS_P1;SDS_P2;PMS_P1;PMS_P2;Temp;Humidity;BMP_temperature;BMP_pressure;BME280_temperature;BME280_humidity;BME280_pressure;Samples;Min_cycle;Max_cycle;Signal;HPM_P1;HPM_P2
2021/10/13 00:00:14;;;;;;;;;;;;;;;6.76;90.12;97230.75;30001;983;1853;-63
2021/10/13 00:00:45;;;;;;;;;;;;;;;6.81;89.91;97225.38;30001;983;1884;-63
2021/10/13 00:01:17;;;;;;;;;;;;;;;6.83;89.83;97230.53;30001;983;1880;-64
2021/10/13 00:01:48;;;;;;;;;;;;;;;6.84;89.38;97226.75;30001;983;1884;-62
2021/10/13 00:02:22;;;;;;;;;;;;;;;6.83;89.56;97231.31;30001;983;1880;-62
2021/10/13 00:02:52;;;;;;;;;;;;;;;6.82;89.67;97235.09;30001;983;1884;-66
2021/10/13 00:03:24;;;;;;;;;;;;;;;6.88;89.50;97230.56;30001;982;1854;-63
2021/10/13 00:03:54;;;;;;;;;;;;;;;6.86;89.25;97230.00;30001;982;1885;-62
2021/10/13 00:04:26;;;;;;;;;;;;;;;6.84;89.46;97232.16;30001;982;1880;-62
2021/10/13 00:04:57;;;;;;;;;;;;;;;6.87;89.27;97231.63;30001;982;1885;-59
2021/10/13 00:05:28;;;;;;;;;;;;;;;6.86;89.02;97230.81;30001;982;1880;-65
2021/10/13 00:05:58;;;;;;;;;;;;;;;6.85;88.95;97229.19;30001;982;1885;-61
2021/10/13 00:06:29;;;;;;;;;;;;;;;6.83;89.06;97228.63;30001;983;1853;-61
2021/10/13 00:07:00;;;;;;;;;;;;;;;6.86;89.40;97235.38;30001;983;1884;-62
2021/10/13 00:07:31;;;;;;;;;;;;;;;6.85;88.92;97233.75;30001;983;1880;-59
2021/10/13 00:08:02;;;;;;;;;;;;;;;6.90;88.81;97231.91;30001;983;1884;-57
2021/10/13 00:08:33;;;;;;;;;;;;;;;6.92;88.25;97231.66;30001;983;1880;-62
2021/10/13 00:09:04;;;;;;;;;;;;;;;6.88;87.96;97231.38;30001;983;1858;-63
2021/10/13 00:09:35;;;;;;;;;;;;;;;6.84;88.37;97232.16;30001;983;1880;-61
2021/10/13 00:10:06;;;;;;;;;;;;;;;6.81;88.71;97232.66;30001;983;1884;-62
2021/10/13 00:10:37;;;;;;;;;;;;;;;6.82;88.99;97236.97;30001;982;1880;-60
2021/10/13 00:11:08;;;;;;;;;;;;;;;6.85;88.81;97233.75;30001;982;1885;-59
2021/10/13 00:11:39;;;;;;;;;;;;;;;6.86;88.16;97227.31;30001;982;1880;-61
2021/10/13 00:12:10;;;;;;;;;;;;;;;6.82;88.34;97228.91;30001;982;1885;-63
2021/10/13 00:12:41;;;;;;;;;;;;;;;6.79;88.51;97224.00;30001;982;1880;-60
2021/10/13 00:13:12;;;;;;;;;;;;;;;6.75;88.34;97229.13;30001;983;1858;-63
2021/10/13 00:13:43;;;;;;;;;;;;;;;6.71;88.57;97223.44;30001;983;1880;-63
2021/10/13 00:14:14;;;;;;;;;;;;;;;6.68;89.02;97218.53;30001;983;1884;-62
2021/10/13 00:14:45;;;;;;;;;;;;;;;6.65;88.97;97219.06;30001;983;1880;-61
2021/10/13 00:15:16;;;;;;;;;;;;;;;6.64;89.40;97228.22;30001;983;1884;-62
2021/10/13 00:15:47;;;;;;;;;;;;;;;6.72;89.24;97225.06;30001;983;1880;-58
2021/10/13 00:16:18;;;;;;;;;;;;;;;6.73;89.00;97232.06;30001;983;1884;-63
2021/10/13 00:17:02;;;;;;;;;;;;;;;6.75;88.98;97223.72;30001;983;1854;-63
2021/10/13 00:17:33;;;;;;;;;;;;;;;6.75;89.09;97222.91;30001;983;1884;-58
2021/10/13 00:18:05;;;;;;;;;;;;;;;6.78;88.91;97222.38;30001;983;1880;-63
2021/10/13 00:18:39;;;;;;;;;;;;;;;6.75;89.01;97222.91;30001;982;1858;-62
2021/10/13 00:19:10;;;;;;;;;;;;;;;6.77;88.96;97226.97;30001;982;1880;-67
2021/10/13 00:19:40;;;;;;;;;;;;;;;6.81;88.41;97227.25;30001;982;1884;-63
2021/10/13 00:20:11;;;;;;;;;;;;;;;6.79;88.10;97232.91;30001;982;1880;-60
2021/10/13 00:20:42;;;;;;;;;;;;;;;6.73;88.17;97232.06;30001;983;1884;-58
2021/10/13 00:21:13;;;;;;;;;;;;;;;6.75;88.15;97228.31;30001;983;1880;-60
2021/10/13 00:21:43;;;;;;;;;;;;;;;6.70;88.23;97232.59;30001;983;1884;-62
2021/10/13 00:22:14;;;;;;;;;;;;;;;6.67;88.51;97232.28;30001;983;1880;-61
2021/10/13 00:22:45;;;;;;;;;;;;;;;6.65;88.69;97224.47;30001;983;1884;-62
2021/10/13 00:23:16;;;;;;;;;;;;;;;6.65;88.97;97232.53;30001;983;1880;-63
2021/10/13 00:23:47;;;;;;;;;;;;;;;6.62;89.16;97227.66;30001;983;1858;-62
2021/10/13 00:24:18;;;;;;;;;;;;;;;6.61;89.05;97231.44;30001;983;1880;-62
2021/10/13 00:24:48;;;;;;;;;;;;;;;6.58;89.21;97233.87;30001;966;1901;-61
2021/10/13 00:25:20;;;;;;;;;;;;;;;6.62;89.58;97226.84;30001;983;1854;-59
2021/10/13 00:25:50;;;;;;;;;;;;;;;6.62;89.54;97230.38;30001;982;1884;-59
2021/10/13 00:26:21;;;;;;;;;;;;;;;6.64;89.40;97230.09;30001;982;1880;-63
2021/10/13 00:26:52;;;;;;;;;;;;;;;6.64;89.22;97224.72;30001;982;1885;-63
2021/10/13 00:27:23;;;;;;;;;;;;;;;6.63;89.28;97237.38;30001;982;1880;-67
2021/10/13 00:27:54;;;;;;;;;;;;;;;6.60;89.41;97232.50;30001;982;1885;-60
2021/10/13 00:28:25;;;;;;;;;;;;;;;6.60;89.48;97227.13;30001;983;1880;-59
2021/10/13 00:28:56;;;;;;;;;;;;;;;6.68;88.92;97223.94;30001;983;1884;-66
2021/10/13 00:29:27;;;;;;;;;;;;;;;6.76;87.97;97229.94;30001;983;1879;-65
2021/10/13 00:29:58;;;;;;;;;;;;;;;6.77;87.49;97229.66;30001;983;1884;-63
2021/10/13 00:30:30;;;;;;;;;;;;;;;6.71;87.70;97230.69;30001;983;1853;-62
2021/10/13 00:31:01;;;;;;;;;;;;;;;6.68;87.99;97229.34;30001;983;1858;-67
2021/10/13 00:31:32;;;;;;;;;;;;;;;6.71;87.96;97234.22;30001;983;1880;-59
2021/10/13 00:32:04;;;;;;;;;;;;;;;6.70;87.76;97232.59;30001;983;1884;-61
2021/10/13 00:32:35;;;;;;;;;;;;;;;6.67;87.88;97234.97;30001;982;1880;-63
2021/10/13 00:33:06;;;;;;;;;;;;;;;6.66;88.15;97236.88;30001;986;1876;-62
2021/10/13 00:33:37;;;;;;;;;;;;;;;6.63;88.36;97242.78;30001;982;1885;-63
2021/10/13 00:34:08;;;;;;;;;;;;;;;6.60;88.81;97231.69;30001;982;1880;-61
2021/10/13 00:34:41;;;;;;;;;;;;;;;6.58;88.96;97240.06;30001;982;1885;-61
2021/10/13 00:35:12;;;;;;;;;;;;;;;6.57;89.02;97248.41;30001;982;1880;-62
2021/10/13 00:35:43;;;;;;;;;;;;;;;6.57;89.13;97243.03;30001;983;1884;-61
2021/10/13 00:36:13;;;;;;;;;;;;;;;6.56;89.12;97242.22;30001;983;1853;-62
2021/10/13 00:36:44;;;;;;;;;;;;;;;6.54;89.13;97244.34;30001;983;1883;-61
2021/10/13 00:37:15;;;;;;;;;;;;;;;6.55;89.71;97243.28;30001;983;1879;-58
2021/10/13 00:37:46;;;;;;;;;;;;;;;6.56;89.48;97242.22;30001;983;1884;-59
2021/10/13 00:38:18;;;;;;;;;;;;;;;6.59;89.42;97241.66;30001;983;1880;-61
2021/10/13 00:38:49;;;;;;;;;;;;;;;6.63;88.96;97248.16;30001;983;1884;-58
2021/10/13 00:39:20;;;;;;;;;;;;;;;6.68;88.67;97244.69;30001;983;1880;-57
2021/10/13 00:39:50;;;;;;;;;;;;;;;6.70;88.38;97254.16;30001;983;1884;-63
2021/10/13 00:40:23;;;;;;;;;;;;;;;6.72;87.71;97252.03;30001;982;1854;-63
2021/10/13 00:40:55;;;;;;;;;;;;;;;6.69;87.84;97247.13;30001;982;1885;-58
2021/10/13 00:41:26;;;;;;;;;;;;;;;6.67;88.18;97245.78;30001;982;1880;-60
2021/10/13 00:41:57;;;;;;;;;;;;;;;6.63;88.18;97252.75;30001;982;1885;-61
2021/10/13 00:42:27;;;;;;;;;;;;;;;6.59;88.53;97247.06;30001;982;1880;-59
2021/10/13 00:42:58;;;;;;;;;;;;;;;6.59;88.53;97251.63;30001;982;1885;-59
2021/10/13 00:43:29;;;;;;;;;;;;;;;6.62;88.71;97243.84;30001;983;1853;-75
2021/10/13 00:44:00;;;;;;;;;;;;;;;6.70;88.02;97246.06;30001;983;1884;-63
2021/10/13 00:44:31;;;;;;;;;;;;;;;6.70;87.52;97247.94;30001;983;1880;-62
2021/10/13 00:45:06;;;;;;;;;;;;;;;6.68;87.48;97245.50;30001;965;1866;-62
2021/10/13 00:45:37;;;;;;;;;;;;;;;6.65;87.79;97246.03;30001;983;1876;-61
2021/10/13 00:46:07;;;;;;;;;;;;;;;6.63;88.19;97247.34;30001;983;1880;-61
2021/10/13 00:46:38;;;;;;;;;;;;;;;6.57;88.34;97246.53;30001;983;1876;-61
2021/10/13 00:47:10;;;;;;;;;;;;;;;6.53;88.31;97247.31;30001;983;1880;-61
2021/10/13 00:47:41;;;;;;;;;;;;;;;6.53;88.85;97252.69;30001;982;1876;-61
2021/10/13 00:48:12;;;;;;;;;;;;;;;6.52;88.62;97251.88;30001;982;1880;-57
2021/10/13 00:48:43;;;;;;;;;;;;;;;6.51;88.67;97249.44;30001;982;1850;-57
2021/10/13 00:49:14;;;;;;;;;;;;;;;6.51;88.84;97250.25;30001;982;1880;-62
2021/10/13 00:49:45;;;;;;;;;;;;;;;6.53;88.80;97253.50;30001;982;1876;-60
2021/10/13 00:50:16;;;;;;;;;;;;;;;6.56;88.51;97244.91;30001;982;1854;-60
2021/10/13 00:50:47;;;;;;;;;;;;;;;6.56;88.37;97246.78;30001;982;1876;-62
2021/10/13 00:51:18;;;;;;;;;;;;;;;6.54;88.41;97252.44;30001;983;1880;-61
2021/10/13 00:51:49;;;;;;;;;;;;;;;6.50;88.62;97253.22;30001;983;1849;-59
2021/10/13 00:52:20;;;;;;;;;;;;;;;6.50;88.96;97248.63;30001;983;1880;-64
2021/10/13 00:52:51;;;;;;;;;;;;;;;6.47;88.78;97251.03;30001;983;1876;-63
2021/10/13 00:53:23;;;;;;;;;;;;;;;6.45;89.33;97256.66;30001;983;1880;-59
2021/10/13 00:53:54;;;;;;;;;;;;;;;6.43;89.04;97253.41;30001;983;1876;-60
2021/10/13 00:54:25;;;;;;;;;;;;;;;6.44;89.50;97254.22;30001;983;1880;-63
2021/10/13 00:54:57;;;;;;;;;;;;;;;6.41;89.36;97255.56;30001;983;1849;-61
2021/10/13 00:55:29;;;;;;;;;;;;;;;6.39;89.44;97257.69;30001;982;1880;-58
2021/10/13 00:56:00;;;;;;;;;;;;;;;6.39;89.76;97257.69;30001;982;1876;-57
2021/10/13 00:56:31;;;;;;;;;;;;;;;6.43;89.56;97256.13;30001;982;1881;-58
2021/10/13 00:57:03;;;;;;;;;;;;;;;6.52;89.46;97254.56;30001;982;1876;-66
2021/10/13 00:57:35;;;;;;;;;;;;;;;6.56;88.86;97246.78;30001;983;1880;-61
2021/10/13 00:58:05;;;;;;;;;;;;;;;6.53;88.52;97253.50;30001;983;1875;-60
2021/10/13 00:58:36;;;;;;;;;;;;;;;6.48;88.41;97256.16;30001;983;1880;-61
2021/10/13 00:59:07;;;;;;;;;;;;;;;6.49;88.72;97252.41;30001;983;1849;-61
2021/10/13 00:59:38;;;;;;;;;;;;;;;6.47;89.15;97249.16;30001;983;1880;-61
2021/10/13 01:00:09;;;;;;;;;;;;;;;6.47;88.92;97249.16;30001;983;1875;-59
2021/10/13 01:00:42;;;;;;;;;;;;;;;6.49;89.56;97256.97;30001;983;1880;-57
2021/10/13 01:01:19;;;;;;;;;;;;;;;6.48;89.47;97244.56;30001;983;1875;-61
2021/10/13 01:02:02;;;;;;;;;;;;;;;6.45;89.28;97248.59;30001;983;1880;-62
2021/10/13 01:02:41;;;;;;;;;;;;;;;6.50;89.21;97251.31;30001;982;1876;-58
2021/10/13 01:03:27;;;;;;;;;;;;;;;6.57;88.93;97243.03;30001;982;1854;-60
2021/10/13 01:04:23;;;;;;;;;;;;;;;6.59;88.36;97247.06;30001;982;1876;-60
2021/10/13 01:05:29;;;;;;;;;;;;;;;6.53;88.25;97240.03;30001;982;1876;-63
2021/10/13 01:06:03;;;;;;;;;;;;;;;6.41;88.74;97250.16;30001;983;1871;-62
2021/10/13 01:07:03;;;;;;;;;;;;;;;6.44;88.66;97244.25;30001;983;1879;-62
2021/10/13 01:07:52;;;;;;;;;;;;;;;6.42;89.24;97251.78;30001;983;1871;-60
2021/10/13 01:08:30;;;;;;;;;;;;;;;6.46;88.97;97246.69;30001;983;1845;-61
2021/10/13 01:09:06;;;;;;;;;;;;;;;6.45;88.92;97245.06;30001;983;1876;-59
2021/10/13 01:09:51;;;;;;;;;;;;;;;6.45;89.00;97251.28;30001;983;1880;-61
2021/10/13 01:10:48;;;;;;;;;;;;;;;6.43;89.07;97248.03;30001;982;1876;-61
2021/10/13 01:11:58;;;;;;;;;;;;;;;6.43;88.90;97253.41;30001;982;1876;-64
2021/10/13 01:12:53;;;;;;;;;;;;;;;6.37;89.12;97249.87;30001;982;1872;-62
2021/10/13 01:13:52;;;;;;;;;;;;;;;6.32;89.32;97257.91;30001;983;1849;-61
2021/10/13 01:15:01;;;;;;;;;;;;;;;6.34;89.31;97263.03;30001;983;1871;-65
2021/10/13 01:15:54;;;;;;;;;;;;;;;6.27;89.64;97260.56;30001;983;1876;-62
2021/10/13 01:16:51;;;;;;;;;;;;;;;6.31;89.70;97271.63;30001;983;1871;-62
2021/10/13 01:17:30;;;;;;;;;;;;;;;6.33;89.65;97270.31;30001;982;1876;-62
2021/10/13 01:18:08;;;;;;;;;;;;;;;6.33;89.78;97274.88;30001;982;1850;-61
2021/10/13 01:18:50;;;;;;;;;;;;;;;6.31;89.63;97271.63;30001;982;1880;-61
2021/10/13 01:19:27;;;;;;;;;;;;;;;6.30;89.92;97278.91;30001;982;1876;-61
2021/10/13 01:20:20;;;;;;;;;;;;;;;6.40;89.46;97275.50;30001;982;1881;-67
2021/10/13 01:21:02;;;;;;;;;;;;;;;6.50;88.57;97280.97;30001;983;1845;-60
2021/10/13 01:21:51;;;;;;;;;;;;;;;6.48;88.30;97288.50;30001;983;1879;-58
2021/10/13 01:22:53;;;;;;;;;;;;;;;6.48;88.31;97283.12;30001;983;1866;-62
2021/10/13 01:23:33;;;;;;;;;;;;;;;6.49;88.49;97292.84;30001;983;1875;-60
2021/10/13 01:24:28;;;;;;;;;;;;;;;6.52;88.73;97289.63;30001;983;1876;-63
2021/10/13 01:25:28;;;;;;;;;;;;;;;6.57;88.37;97281.59;30001;984;1787;-62
2021/10/13 01:26:10;;;;;;;;;;;;;;;6.58;87.82;97290.47;30001;982;1850;-59
2021/10/13 01:27:00;;;;;;;;;;;;;;;6.57;87.86;97286.97;30001;982;1876;-62
2021/10/13 01:27:49;;;;;;;;;;;;;;;6.53;88.16;97291.25;30001;982;1845;-63
2021/10/13 01:28:26;;;;;;;;;;;;;;;6.48;88.20;97290.38;30001;972;1889;-57
2021/10/13 01:29:02;;;;;;;;;;;;;;;6.48;88.05;97293.09;30001;983;1880;-63
2021/10/13 01:29:36;;;;;;;;;;;;;;;6.54;88.03;97290.19;30001;983;1876;-73
2021/10/13 01:30:07;;;;;;;;;;;;;;;6.55;87.30;97291.81;30001;983;1880;-58
2021/10/13 01:30:43;;;;;;;;;;;;;;;6.52;87.45;97300.41;30001;983;1876;-60
2021/10/13 01:31:25;;;;;;;;;;;;;;;6.49;87.60;97292.00;30001;983;1854;-57
2021/10/13 01:32:02;;;;;;;;;;;;;;;6.50;87.45;97296.34;30001;982;1876;-61
2021/10/13 01:32:36;;;;;;;;;;;;;;;6.48;87.45;97299.28;30001;982;1880;-64
2021/10/13 01:33:11;;;;;;;;;;;;;;;6.48;87.62;97299.28;30001;982;1876;-61
2021/10/13 01:33:58;;;;;;;;;;;;;;;6.43;87.69;97296.53;30001;982;1881;-59
2021/10/13 01:34:32;;;;;;;;;;;;;;;6.38;87.96;97294.63;30001;982;1876;-62
2021/10/13 01:35:05;;;;;;;;;;;;;;;6.34;87.88;97298.06;30001;982;1881;-61
2021/10/13 01:35:39;;;;;;;;;;;;;;;6.31;88.32;97290.50;30001;983;1875;-66
2021/10/13 01:36:11;;;;;;;;;;;;;;;6.34;88.48;97292.69;30001;983;1853;-61
2021/10/13 01:36:49;;;;;;;;;;;;;;;6.34;88.25;97292.69;30001;983;1876;-62
2021/10/13 01:37:28;;;;;;;;;;;;;;;6.34;88.91;97298.06;30001;983;1854;-68
2021/10/13 01:38:02;;;;;;;;;;;;;;;6.33;88.43;97291.06;30001;983;1876;-61
2021/10/13 01:38:41;;;;;;;;;;;;;;;6.30;88.47;97288.88;30001;983;1880;-59
2021/10/13 01:39:12;;;;;;;;;;;;;;;6.26;88.55;97291.25;30001;983;1876;-58
2021/10/13 01:39:44;;;;;;;;;;;;;;;6.28;88.96;97294.50;30001;982;1880;-62
2021/10/13 01:40:17;;;;;;;;;;;;;;;6.29;88.85;97295.31;30001;982;1876;-59
2021/10/13 01:40:50;;;;;;;;;;;;;;;6.37;88.31;97293.00;30001;982;1880;-65
2021/10/13 01:41:22;;;;;;;;;;;;;;;6.39;87.83;97295.44;30001;982;1876;-61
2021/10/13 01:41:55;;;;;;;;;;;;;;;6.36;87.69;97296.75;30001;982;1881;-59
2021/10/13 01:42:29;;;;;;;;;;;;;;;6.39;87.48;97296.25;30001;982;1850;-57
2021/10/13 01:43:01;;;;;;;;;;;;;;;6.42;87.29;97294.91;30001;983;1880;-57
2021/10/13 01:43:34;;;;;;;;;;;;;;;6.42;87.04;97294.91;30001;983;1875;-61
2021/10/13 01:44:08;;;;;;;;;;;;;;;6.43;86.88;97296.53;30001;983;1880;-58
2021/10/13 01:44:40;;;;;;;;;;;;;;;6.37;86.76;97308.34;30001;983;1876;-59
2021/10/13 01:45:12;;;;;;;;;;;;;;;6.36;87.27;97309.41;30001;983;1880;-59
2021/10/13 01:45:45;;;;;;;;;;;;;;;6.33;87.48;97307.22;30001;983;1876;-58
2021/10/13 01:46:16;;;;;;;;;;;;;;;6.30;87.60;97299.66;30001;983;1880;-63
2021/10/13 01:46:47;;;;;;;;;;;;;;;6.30;87.47;97307.72;30001;983;1876;-61
2021/10/13 01:47:20;;;;;;;;;;;;;;;6.26;87.58;97307.44;30001;982;1880;-59
2021/10/13 01:47:52;;;;;;;;;;;;;;;6.24;87.91;97308.75;30001;982;1850;-58
2021/10/13 01:48:24;;;;;;;;;;;;;;;6.27;87.85;97310.94;30001;982;1880;-60
2021/10/13 01:48:56;;;;;;;;;;;;;;;6.26;88.06;97309.31;30001;982;1850;-61
2021/10/13 01:49:33;;;;;;;;;;;;;;;6.24;88.09;97309.56;30001;982;1880;-63
2021/10/13 01:50:05;;;;;;;;;;;;;;;6.23;88.12;97317.94;30001;983;1875;-61
2021/10/13 01:50:36;;;;;;;;;;;;;;;6.24;88.37;97308.75;30001;983;1880;-63
2021/10/13 01:51:08;;;;;;;;;;;;;;;6.23;87.97;97312.53;30001;983;1875;-61
2021/10/13 01:51:39;;;;;;;;;;;;;;;6.21;88.14;97320.88;30001;983;1880;-60
2021/10/13 01:52:11;;;;;;;;;;;;;;;6.19;87.89;97323.00;30001;983;1876;-60
2021/10/13 01:52:42;;;;;;;;;;;;;;;6.17;87.98;97324.34;30001;983;1854;-60
2021/10/13 01:53:18;;;;;;;;;;;;;;;6.15;88.37;97321.06;30001;983;1876;-62
2021/10/13 01:53:49;;;;;;;;;;;;;;;6.14;88.47;97322.97;30001;983;1880;-61
2021/10/13 01:54:21;;;;;;;;;;;;;;;6.17;88.60;97318.94;30001;983;1876;-59
2021/10/13 01:54:53;;;;;;;;;;;;;;;6.18;88.50;97320.56;30001;982;1880;-61
2021/10/13 01:55:26;;;;;;;;;;;;;;;6.20;88.21;97324.63;30001;982;1876;-62
2021/10/13 01:55:58;;;;;;;;;;;;;;;6.20;88.18;97331.91;30001;982;1881;-58
2021/10/13 01:56:32;;;;;;;;;;;;;;;6.20;88.19;97319.25;30001;982;1876;-61
2021/10/13 01:57:04;;;;;;;;;;;;;;;6.20;88.18;97329.22;30001;982;1880;-61
2021/10/13 01:57:35;;;;;;;;;;;;;;;6.18;88.32;97334.03;30001;983;1849;-62
2021/10/13 01:58:07;;;;;;;;;;;;;;;6.18;88.46;97336.75;30001;983;1880;-61
2021/10/13 01:58:41;;;;;;;;;;;;;;;6.17;88.32;97338.63;30001;983;1875;-60
2021/10/13 01:59:14;;;;;;;;;;;;;;;6.22;88.18;97340.56;30001;983;1854;-61
2021/10/13 01:59:46;;;;;;;;;;;;;;;6.24;87.64;97338.38;30001;983;1875;-61
2021/10/13 02:00:20;;;;;;;;;;;;;;;6.22;87.70;97332.47;30001;983;1880;-60
2021/10/13 02:00:51;;;;;;;;;;;;;;;6.21;87.64;97336.22;30001;983;1876;-64
2021/10/13 02:01:25;;;;;;;;;;;;;;;6.21;87.84;97341.63;30001;983;1880;-61
2021/10/13 02:01:57;;;;;;;;;;;;;;;6.20;87.84;97340.00;30001;983;1849;-61
2021/10/13 02:02:29;;;;;;;;;;;;;;;6.18;88.05;97342.94;30001;982;1880;-60
2021/10/13 02:03:06;;;;;;;;;;;;;;;6.17;88.13;97340.50;30001;982;1850;-61
2021/10/13 02:03:37;;;;;;;;;;;;;;;6.16;88.43;97338.88;30001;982;1880;-61
2021/10/13 02:04:09;;;;;;;;;;;;;;;6.15;88.70;97348.84;30001;982;1876;-60
2021/10/13 02:04:42;;;;;;;;;;;;;;;6.16;88.55;97344.25;30001;983;1880;-60
2021/10/13 02:05:13;;;;;;;;;;;;;;;6.14;88.64;97347.22;30001;983;1875;-58
2021/10/13 02:05:45;;;;;;;;;;;;;;;6.16;88.79;97345.06;30001;983;1880;-60
2021/10/13 02:06:17;;;;;;;;;;;;;;;6.16;88.42;97339.69;30001;983;1875;-63
2021/10/13 02:06:50;;;;;;;;;;;;;;;6.21;88.34;97347.00;30001;983;1880;-61
2021/10/13 02:07:21;;;;;;;;;;;;;;;6.23;87.56;97339.50;30001;983;1876;-64
2021/10/13 02:07:53;;;;;;;;;;;;;;;6.33;87.17;97344.97;30001;983;1880;-61
2021/10/13 02:08:25;;;;;;;;;;;;;;;6.32;86.95;97348.72;30001;983;1849;-59
2021/10/13 02:08:57;;;;;;;;;;;;;;;6.28;87.11;97342.22;30001;983;1880;-60
2021/10/13 02:09:29;;;;;;;;;;;;;;;6.25;86.94;97348.09;30001;983;1876;-62
2021/10/13 02:10:04;;;;;;;;;;;;;;;6.23;87.40;97350.28;30001;982;1880;-61
2021/10/13 02:10:36;;;;;;;;;;;;;;;6.20;87.58;97353.47;30001;982;1876;-57
2021/10/13 02:11:09;;;;;;;;;;;;;;;6.19;87.73;97349.16;30001;982;1881;-58
2021/10/13 02:11:41;;;;;;;;;;;;;;;6.18;87.91;97347.50;30001;982;1876;-62
2021/10/13 02:12:13;;;;;;;;;;;;;;;6.16;88.13;97344.25;30001;983;1880;-61
2021/10/13 02:12:45;;;;;;;;;;;;;;;6.15;88.06;97351.53;30001;986;1867;-61
2021/10/13 02:13:17;;;;;;;;;;;;;;;6.13;88.33;97348.28;30001;983;1880;-62
2021/10/13 02:13:49;;;;;;;;;;;;;;;6.15;88.65;97350.72;30001;983;1849;-58
2021/10/13 02:14:21;;;;;;;;;;;;;;;6.15;88.92;97353.41;30001;983;1880;-62
2021/10/13 02:14:52;;;;;;;;;;;;;;;6.15;88.92;97348.84;30001;983;1876;-60
2021/10/13 02:15:24;;;;;;;;;;;;;;;6.13;88.55;97350.16;30001;983;1880;-61
2021/10/13 02:15:55;;;;;;;;;;;;;;;6.12;88.74;97357.41;30001;983;1876;-61
2021/10/13 02:16:27;;;;;;;;;;;;;;;6.12;88.81;97353.91;30001;983;1880;-58
2021/10/13 02:17:00;;;;;;;;;;;;;;;6.13;89.06;97355.53;30001;983;1876;-62
2021/10/13 02:17:31;;;;;;;;;;;;;;;6.12;88.81;97352.03;30001;982;1880;-59
2021/10/13 02:18:03;;;;;;;;;;;;;;;6.13;88.60;97360.94;30001;982;1849;-59
2021/10/13 02:18:34;;;;;;;;;;;;;;;6.13;88.90;97358.22;30001;982;1854;-58
2021/10/13 02:19:06;;;;;;;;;;;;;;;6.14;88.92;97357.16;30001;982;1876;-60
2021/10/13 02:19:38;;;;;;;;;;;;;;;6.13;88.91;97356.34;30001;982;1880;-60
2021/10/13 02:20:10;;;;;;;;;;;;;;;6.14;88.54;97352.59;30001;983;1875;-64
2021/10/13 02:20:42;;;;;;;;;;;;;;;6.14;88.66;97351.78;30001;983;1880;-62
2021/10/13 02:21:15;;;;;;;;;;;;;;;6.13;88.60;97358.22;30001;983;1875;-61
2021/10/13 02:21:47;;;;;;;;;;;;;;;6.07;88.31;97362.75;30001;983;1880;-60
2021/10/13 02:22:19;;;;;;;;;;;;;;;6.06;88.40;97361.13;30001;983;1875;-59
2021/10/13 02:22:57;;;;;;;;;;;;;;;6.07;88.77;97357.34;30001;983;1880;-62
2021/10/13 02:23:35;;;;;;;;;;;;;;;6.08;89.04;97360.88;30001;983;1849;-62
2021/10/13 02:24:06;;;;;;;;;;;;;;;6.09;89.10;97359.81;30001;982;1880;-60
2021/10/13 02:24:46;;;;;;;;;;;;;;;6.10;88.85;97364.13;30001;982;1876;-62
2021/10/13 02:25:17;;;;;;;;;;;;;;;6.09;89.01;97365.19;30001;982;1880;-60
2021/10/13 02:25:50;;;;;;;;;;;;;;;6.08;88.59;97358.19;30001;982;1876;-61
2021/10/13 02:26:27;;;;;;;;;;;;;;;6.06;88.95;97369.19;30001;982;1880;-58
2021/10/13 02:27:15;;;;;;;;;;;;;;;6.09;89.22;97365.19;30001;982;1876;-65
2021/10/13 02:27:54;;;;;;;;;;;;;;;6.10;88.93;97358.72;30001;983;1879;-60
2021/10/13 02:28:31;;;;;;;;;;;;;;;6.10;88.75;97372.22;30001;983;1849;-59
2021/10/13 02:29:05;;;;;;;;;;;;;;;6.12;88.73;97367.38;30001;983;1880;-60
2021/10/13 02:29:37;;;;;;;;;;;;;;;6.12;88.78;97370.06;30002;983;1875;-60
2021/10/13 02:30:08;;;;;;;;;;;;;;;6.11;88.59;97369.25;30002;983;1854;-62
2021/10/13 02:30:39;;;;;;;;;;;;;;;6.10;88.79;97366.81;30002;983;1876;-58
2021/10/13 02:31:10;;;;;;;;;;;;;;;6.11;88.78;97368.44;30002;983;1880;-60
2021/10/13 02:31:42;;;;;;;;;;;;;;;6.14;88.38;97362.56;30001;982;1876;-61
2021/10/13 02:32:12;;;;;;;;;;;;;;;6.13;88.36;97366.31;30001;982;1880;-61
2021/10/13 02:32:43;;;;;;;;;;;;;;;6.12;88.36;97375.47;30002;965;1888;-60
2021/10/13 02:33:14;;;;;;;;;;;;;;;6.09;88.44;97370.56;30002;982;1880;-62
2021/10/13 02:33:45;;;;;;;;;;;;;;;6.08;88.49;97371.66;30002;982;1876;-61
2021/10/13 02:34:16;;;;;;;;;;;;;;;6.08;88.59;97368.94;30002;982;1880;-61
2021/10/13 02:34:48;;;;;;;;;;;;;;;6.08;88.71;97372.47;30002;982;1876;-60
2021/10/13 02:35:19;;;;;;;;;;;;;;;6.07;88.75;97372.72;30002;983;1854;-61
2021/10/13 02:35:51;;;;;;;;;;;;;;;6.10;89.08;97373.03;30002;983;1875;-58
2021/10/13 02:36:22;;;;;;;;;;;;;;;6.16;88.59;97377.41;30002;983;1880;-59
2021/10/13 02:36:52;;;;;;;;;;;;;;;6.20;88.06;97375.03;30002;983;1849;-61
2021/10/13 02:37:23;;;;;;;;;;;;;;;6.21;87.95;97376.66;30002;983;1880;-61
2021/10/13 02:37:54;;;;;;;;;;;;;;;6.20;87.73;97375.03;30002;983;1875;-61
2021/10/13 02:38:25;;;;;;;;;;;;;;;6.18;87.84;97375.28;30002;983;1880;-60
2021/10/13 02:38:56;;;;;;;;;;;;;;;6.23;87.73;97382.59;30002;983;1876;-61
2021/10/13 02:39:27;;;;;;;;;;;;;;;6.20;87.72;97373.16;30002;982;1880;-61
2021/10/13 02:39:58;;;;;;;;;;;;;;;6.17;87.78;97372.84;30002;982;1876;-62
2021/10/13 02:40:30;;;;;;;;;;;;;;;6.14;87.99;97376.84;30002;982;1880;-62
2021/10/13 02:41:01;;;;;;;;;;;;;;;6.10;87.95;97373.03;30002;982;1876;-59
2021/10/13 02:41:33;;;;;;;;;;;;;;;6.09;88.51;97381.34;30002;982;1880;-60
2021/10/13 02:42:04;;;;;;;;;;;;;;;6.12;88.46;97381.66;30002;982;1850;-61
2021/10/13 02:42:35;;;;;;;;;;;;;;;6.14;88.32;97378.72;30002;983;1880;-59
2021/10/13 02:43:09;;;;;;;;;;;;;;;6.17;87.97;97375.53;30002;983;1875;-63
2021/10/13 02:43:40;;;;;;;;;;;;;;;6.17;88.02;97379.03;30002;983;1880;-61
2021/10/13 02:44:12;;;;;;;;;;;;;;;6.19;87.80;97379.59;30002;983;1876;-60
2021/10/13 02:44:44;;;;;;;;;;;;;;;6.16;87.56;97376.59;30002;983;1880;-62
2021/10/13 02:45:16;;;;;;;;;;;;;;;6.10;87.73;97381.09;30002;983;1875;-62
2021/10/13 02:45:54;;;;;;;;;;;;;;;6.04;88.15;97382.91;30002;983;1880;-60
2021/10/13 02:46:37;;;;;;;;;;;;;;;6.02;88.48;97376.97;30002;983;1876;-59
2021/10/13 02:47:17;;;;;;;;;;;;;;;5.99;88.36;97379.34;30002;982;1854;-59
2021/10/13 02:48:06;;;;;;;;;;;;;;;5.99;88.74;97382.84;30002;982;1876;-62
2021/10/13 02:48:39;;;;;;;;;;;;;;;5.96;88.79;97379.84;30002;982;1876;-62
2021/10/13 02:49:22;;;;;;;;;;;;;;;5.95;89.07;97392.50;30002;982;1850;-58
2021/10/13 02:50:24;;;;;;;;;;;;;;;5.98;88.86;97381.22;30002;982;1881;-59
2021/10/13 02:51:06;;;;;;;;;;;;;;;6.00;88.93;97384.47;30002;983;1845;-59
2021/10/13 02:51:43;;;;;;;;;;;;;;;6.03;89.02;97385.88;30002;983;1880;-62
2021/10/13 02:52:32;;;;;;;;;;;;;;;6.00;88.21;97384.47;30002;983;1876;-61
2021/10/13 02:53:07;;;;;;;;;;;;;;;5.96;88.29;97385.22;30002;983;1871;-62
2021/10/13 02:53:57;;;;;;;;;;;;;;;5.95;88.56;97389.00;30002;983;1849;-62
2021/10/13 02:54:35;;;;;;;;;;;;;;;5.91;88.71;97380.59;30002;982;1871;-62
2021/10/13 02:55:09;;;;;;;;;;;;;;;5.92;88.73;97387.63;30002;982;1876;-60
2021/10/13 02:55:58;;;;;;;;;;;;;;;5.96;89.23;97387.94;30002;982;1880;-60
2021/10/13 02:56:31;;;;;;;;;;;;;;;6.01;88.73;97390.69;30002;982;1876;-60
2021/10/13 02:57:04;;;;;;;;;;;;;;;6.01;88.68;97391.50;30002;983;1880;-58
2021/10/13 02:57:38;;;;;;;;;;;;;;;6.03;88.33;97384.00;30002;983;1875;-59
2021/10/13 02:58:30;;;;;;;;;;;;;;;6.04;88.39;97391.00;30002;983;1879;-61
2021/10/13 02:59:04;;;;;;;;;;;;;;;6.10;87.58;97393.75;30002;983;1849;-59
2021/10/13 02:59:38;;;;;;;;;;;;;;;6.10;87.37;97393.75;30002;983;1854;-60
2021/10/13 03:00:10;;;;;;;;;;;;;;;6.06;87.53;97398.84;30002;983;1849;-61
2021/10/13 03:00:45;;;;;;;;;;;;;;;6.04;87.24;97407.16;30002;983;1853;-61
2021/10/13 03:01:16;;;;;;;;;;;;;;;6.01;87.74;97401.47;30002;983;1876;-62
2021/10/13 03:01:49;;;;;;;;;;;;;;;6.00;87.77;97400.66;30002;982;1880;-63
2021/10/13 03:02:23;;;;;;;;;;;;;;;6.01;88.35;97396.88;30002;982;1876;-61
2021/10/13 03:03:00;;;;;;;;;;;;;;;6.00;88.38;97405.22;30002;982;1880;-60
2021/10/13 03:03:45;;;;;;;;;;;;;;;5.99;88.59;97399.03;30002;982;1876;-62
2021/10/13 03:04:21;;;;;;;;;;;;;;;6.03;88.36;97400.16;30002;983;1880;-61
2021/10/13 03:04:53;;;;;;;;;;;;;;;6.09;88.23;97400.22;30002;983;1875;-62
2021/10/13 03:05:26;;;;;;;;;;;;;;;6.07;87.82;97405.84;30002;983;1853;-62
2021/10/13 03:05:58;;;;;;;;;;;;;;;6.06;87.89;97406.91;30002;983;1849;-62
2021/10/13 03:06:36;;;;;;;;;;;;;;;6.03;88.29;97400.16;30002;983;1880;-61
2021/10/13 03:07:10;;;;;;;;;;;;;;;6.01;88.39;97404.97;30002;983;1875;-61